createdAt,value
2022-12-03T00:02:24.948Z,16.23
2022-12-03T00:04:54.742Z,15.30
2022-12-03T00:07:23.157Z,17.07
2022-12-03T00:09:51.715Z,15.57
2022-12-03T00:12:22.866Z,17.17
2022-12-03T00:14:52.548Z,15.70
2022-12-03T00:17:21.208Z,17.73
2022-12-03T00:19:51.946Z,18.50
2022-12-03T00:22:21.292Z,15.97
2022-12-03T00:24:52.747Z,17.40
2022-12-03T00:27:44.454Z,16.63
2022-12-03T00:30:14.753Z,15.73
2022-12-03T00:33:03.454Z,16.30
2022-12-03T00:35:32.218Z,16.63
2022-12-03T00:38:02.492Z,16.90
2022-12-03T00:40:30.509Z,16.27
2022-12-03T00:43:00.272Z,16.27
2022-12-03T00:45:28.765Z,16.27
2022-12-03T00:47:58.504Z,17.17
2022-12-03T00:50:26.488Z,16.80
2022-12-03T00:52:54.402Z,16.00
2022-12-03T00:55:25.001Z,16.43
2022-12-03T00:57:53.481Z,16.27
2022-12-03T01:00:27.728Z,16.63
2022-12-03T01:03:03.389Z,16.97
2022-12-03T01:05:51.820Z,14.90
2022-12-03T01:08:45.368Z,16.30
2022-12-03T01:11:41.592Z,16.27
2022-12-03T01:14:11.849Z,15.90
2022-12-03T01:16:50.564Z,15.07
2022-12-03T01:19:48.428Z,15.20
2022-12-03T01:22:41.568Z,16.77
2022-12-03T01:25:11.252Z,16.67
2022-12-03T01:27:45.524Z,17.43
2022-12-03T01:30:15.375Z,16.53
2022-12-03T01:32:44.014Z,16.03
2022-12-03T01:35:15.353Z,16.70
2022-12-03T01:37:43.924Z,16.47
2022-12-03T01:40:14.805Z,16.57
2022-12-03T01:43:06.909Z,15.77
2022-12-03T01:45:34.951Z,16.10
2022-12-03T01:48:04.976Z,14.97
2022-12-03T01:50:57.363Z,15.50
2022-12-03T01:53:25.867Z,14.93
2022-12-03T01:56:14.349Z,15.97
2022-12-03T01:58:49.332Z,12.70
2022-12-03T02:01:39.889Z,16.47
2022-12-03T02:04:14.304Z,15.33
2022-12-03T02:06:43.560Z,18.67
2022-12-03T02:09:12.785Z,16.77
2022-12-03T02:11:45.973Z,15.47
2022-12-03T02:14:21.618Z,17.77
2022-12-03T02:16:49.975Z,16.03
2022-12-03T02:19:23.761Z,16.30
2022-12-03T02:21:59.012Z,16.13
2022-12-03T02:24:37.435Z,16.77
2022-12-03T02:27:28.550Z,16.10
2022-12-03T02:29:57.072Z,16.07
2022-12-03T02:32:26.335Z,16.03
2022-12-03T02:34:55.480Z,15.57
2022-12-03T02:37:31.112Z,16.47
2022-12-03T02:40:23.084Z,16.90
2022-12-03T02:42:58.000Z,16.20
2022-12-03T02:45:28.665Z,15.90
2022-12-03T02:48:25.050Z,17.30
2022-12-03T02:51:14.029Z,17.03
2022-12-03T02:53:45.899Z,16.50
2022-12-03T02:56:17.562Z,16.17
2022-12-03T02:59:13.267Z,15.87
2022-12-03T03:01:42.125Z,16.53
2022-12-03T03:04:11.425Z,17.10
2022-12-03T03:06:42.396Z,16.50
2022-12-03T03:09:11.139Z,16.13
2022-12-03T03:11:39.345Z,16.63
2022-12-03T03:14:10.819Z,16.23
2022-12-03T03:16:59.439Z,17.13
2022-12-03T03:19:30.636Z,16.27
2022-12-03T03:22:03.044Z,15.47
2022-12-03T03:24:32.390Z,15.13
2022-12-03T03:27:03.616Z,15.70
2022-12-03T03:29:46.671Z,15.20
2022-12-03T03:32:14.935Z,16.37
2022-12-03T03:35:05.657Z,16.73
2022-12-03T03:37:36.308Z,16.73
2022-12-03T03:40:05.115Z,14.50
2022-12-03T03:42:35.226Z,14.67
2022-12-03T03:45:14.688Z,16.63
2022-12-03T03:47:48.634Z,16.10
2022-12-03T03:50:19.279Z,16.50
2022-12-03T03:52:49.857Z,15.10
2022-12-03T03:55:19.156Z,16.13
2022-12-03T03:57:55.661Z,15.83
2022-12-03T04:00:36.320Z,15.47
2022-12-03T04:03:27.600Z,15.60
2022-12-03T04:05:58.644Z,15.53
2022-12-03T04:08:46.989Z,15.33
2022-12-03T04:11:35.903Z,15.63
2022-12-03T04:14:33.559Z,16.20
2022-12-03T04:17:04.132Z,15.63
2022-12-03T04:19:36.739Z,15.47
2022-12-03T04:22:24.178Z,16.10
2022-12-03T04:25:17.266Z,16.23
2022-12-03T04:28:03.475Z,15.00
2022-12-03T04:34:15.273Z,15.47
2022-12-03T04:37:06.560Z,15.40
2022-12-03T04:39:37.386Z,14.70
2022-12-03T04:42:13.624Z,15.87
2022-12-03T04:45:01.941Z,16.37
2022-12-03T04:47:51.274Z,16.17
2022-12-03T04:50:41.479Z,14.90
2022-12-03T04:53:13.113Z,15.40
2022-12-03T04:56:04.593Z,16.17
2022-12-03T04:58:35.926Z,14.73
2022-12-03T05:01:04.152Z,16.20
2022-12-03T05:03:54.298Z,15.80
2022-12-03T05:06:25.003Z,15.83
2022-12-03T05:08:56.573Z,14.53
2022-12-03T05:11:24.872Z,15.40
2022-12-03T05:13:53.962Z,16.03
2022-12-03T05:16:23.498Z,16.03
2022-12-03T05:18:53.392Z,17.00
2022-12-03T05:21:23.565Z,14.87
2022-12-03T05:23:56.855Z,15.60
2022-12-03T05:26:45.022Z,16.10
2022-12-03T05:29:13.038Z,16.47
2022-12-03T05:31:41.160Z,16.50
2022-12-03T05:34:09.112Z,14.67
2022-12-03T05:36:36.999Z,14.80
2022-12-03T05:39:06.517Z,15.73
2022-12-03T05:41:52.314Z,17.20
2022-12-03T05:44:20.835Z,16.13
2022-12-03T05:46:49.042Z,15.17
2022-12-03T05:49:16.949Z,15.30
2022-12-03T05:51:44.885Z,14.10
2022-12-03T05:54:14.187Z,15.47
2022-12-03T05:56:42.235Z,16.20
2022-12-03T05:59:10.171Z,15.83
2022-12-03T06:01:38.159Z,16.80
2022-12-03T06:04:06.460Z,17.27
2022-12-03T06:06:34.486Z,16.20
2022-12-03T06:09:02.453Z,15.00
2022-12-03T06:11:34.150Z,16.33
2022-12-03T06:14:02.127Z,16.63
2022-12-03T06:16:30.276Z,16.67
2022-12-03T06:18:58.317Z,15.80
2022-12-03T06:21:26.276Z,15.40
2022-12-03T06:23:57.049Z,16.33
2022-12-03T06:26:24.983Z,16.83
2022-12-03T06:28:54.325Z,17.00
2022-12-03T06:31:23.145Z,15.20
2022-12-03T06:33:51.254Z,17.33
2022-12-03T06:36:22.956Z,17.00
2022-12-03T06:38:51.540Z,15.93
2022-12-03T06:41:19.475Z,17.13
2022-12-03T06:43:47.982Z,15.73
2022-12-03T06:46:17.410Z,16.20
2022-12-03T06:48:45.425Z,15.50
2022-12-03T06:51:13.416Z,17.43
2022-12-03T06:53:41.460Z,16.20
2022-12-03T06:56:09.945Z,16.27
2022-12-03T06:58:37.992Z,16.23
2022-12-03T07:01:06.083Z,16.80
2022-12-03T07:03:35.465Z,16.30
2022-12-03T07:06:03.486Z,15.67
2022-12-03T07:08:31.438Z,16.43
2022-12-03T07:10:59.344Z,17.37
2022-12-03T07:13:27.604Z,17.07
2022-12-03T07:15:55.590Z,17.93
2022-12-03T07:18:23.611Z,17.50
2022-12-03T07:20:55.096Z,17.00
2022-12-03T07:23:23.105Z,15.50
2022-12-03T07:25:51.011Z,17.33
2022-12-03T07:28:19.183Z,17.37
2022-12-03T07:30:47.152Z,16.83
2022-12-03T07:33:15.125Z,17.73
2022-12-03T07:35:44.614Z,17.83
2022-12-03T07:38:13.956Z,18.80
2022-12-03T07:40:42.193Z,17.27
2022-12-03T07:43:10.721Z,18.27
2022-12-03T07:45:38.685Z,17.00
2022-12-03T07:48:07.254Z,17.47
2022-12-03T07:50:35.207Z,18.30
2022-12-03T07:53:03.182Z,19.37
2022-12-03T07:55:32.568Z,17.30
2022-12-03T07:58:00.656Z,16.50
2022-12-03T08:00:28.752Z,17.63
2022-12-03T08:02:56.822Z,18.27
2022-12-03T08:05:25.106Z,18.70
2022-12-03T08:07:53.274Z,20.53
2022-12-03T08:10:21.310Z,20.33
2022-12-03T08:12:50.587Z,20.07
2022-12-03T08:15:21.887Z,19.27
2022-12-03T08:17:56.697Z,19.27
2022-12-03T08:20:27.068Z,20.27
2022-12-03T08:22:55.675Z,19.43
2022-12-03T08:25:25.698Z,18.87
2022-12-03T08:27:58.241Z,18.83
2022-12-03T08:30:26.322Z,18.70
2022-12-03T08:32:55.001Z,19.90
2022-12-03T08:35:25.157Z,19.57
2022-12-03T08:38:01.029Z,19.37
2022-12-03T08:40:35.657Z,19.60
2022-12-03T08:43:13.877Z,21.47
2022-12-03T08:45:43.342Z,20.10
2022-12-03T08:48:29.236Z,19.37
2022-12-03T08:51:00.849Z,19.50
2022-12-03T08:53:37.242Z,20.30
2022-12-03T08:56:14.279Z,20.80
2022-12-03T08:58:45.092Z,17.83
2022-12-03T09:01:29.977Z,20.10
2022-12-03T09:04:06.432Z,20.00
2022-12-03T09:06:34.596Z,19.80
2022-12-03T09:09:06.769Z,20.63
2022-12-03T09:11:35.118Z,18.23
2022-12-03T09:14:04.861Z,22.30
2022-12-03T09:16:33.219Z,19.17
2022-12-03T09:19:01.260Z,19.60
2022-12-03T09:21:49.322Z,18.73
2022-12-03T09:24:17.325Z,18.90
2022-12-03T09:26:45.395Z,18.10
2022-12-03T09:29:14.811Z,17.40
2022-12-03T09:31:43.263Z,18.73
2022-12-03T09:34:13.414Z,16.10
2022-12-03T09:36:41.777Z,18.60
2022-12-03T09:39:10.143Z,17.27
2022-12-03T09:41:38.303Z,16.47
2022-12-03T09:44:08.736Z,16.47
2022-12-03T09:46:44.559Z,17.13
2022-12-03T09:49:16.198Z,16.63
2022-12-03T09:51:46.207Z,16.40
2022-12-03T09:54:24.304Z,17.93
2022-12-03T09:57:07.985Z,15.77
2022-12-03T09:59:36.315Z,17.00
2022-12-03T10:02:20.057Z,17.93
2022-12-03T10:04:48.875Z,19.00
2022-12-03T10:07:17.265Z,17.40
2022-12-03T10:09:45.401Z,18.27
2022-12-03T10:12:14.979Z,19.17
2022-12-03T10:14:44.224Z,19.30
2022-12-03T10:17:15.947Z,18.67
2022-12-03T10:19:44.718Z,19.30
2022-12-03T10:22:12.646Z,19.40
2022-12-03T10:24:40.800Z,18.67
2022-12-03T10:27:22.925Z,18.43
2022-12-03T10:29:59.048Z,19.10
2022-12-03T10:32:41.584Z,18.90
2022-12-03T10:35:12.364Z,19.87
2022-12-03T10:37:58.605Z,20.43
2022-12-03T10:40:28.624Z,19.73
2022-12-03T10:43:17.604Z,20.13
2022-12-03T10:45:46.756Z,20.43
2022-12-03T10:48:18.053Z,21.33
2022-12-03T10:50:51.529Z,21.10
2022-12-03T10:53:20.963Z,18.90
2022-12-03T10:55:54.483Z,19.53
2022-12-03T10:58:25.082Z,21.27
2022-12-03T11:00:54.949Z,20.70
2022-12-03T11:03:26.348Z,20.93
2022-12-03T11:05:55.757Z,19.40
2022-12-03T11:08:25.587Z,21.73
2022-12-03T11:10:58.670Z,21.20
2022-12-03T11:13:47.721Z,20.23
2022-12-03T11:16:37.558Z,20.03
2022-12-03T11:19:16.087Z,20.77
2022-12-03T11:22:17.888Z,20.27
2022-12-03T11:24:46.028Z,19.03
2022-12-03T11:27:23.034Z,19.70
2022-12-03T11:30:00.978Z,16.47
2022-12-03T11:33:06.215Z,19.97
2022-12-03T11:35:54.361Z,18.80
2022-12-03T11:38:55.759Z,20.50
2022-12-03T11:41:32.148Z,17.43
2022-12-03T11:44:29.372Z,21.43
2022-12-03T11:47:00.043Z,21.40
2022-12-03T11:49:39.565Z,21.47
2022-12-03T11:52:28.317Z,21.53
2022-12-03T11:55:02.337Z,19.77
2022-12-03T11:57:36.663Z,22.23
2022-12-03T12:00:19.118Z,21.63
2022-12-03T12:02:47.838Z,21.47
2022-12-03T12:05:24.600Z,21.63
2022-12-03T12:07:58.198Z,19.77
2022-12-03T12:10:43.817Z,19.97
2022-12-03T12:13:55.604Z,20.83
2022-12-03T12:16:46.734Z,22.00
2022-12-03T12:19:41.491Z,20.93
2022-12-03T12:22:20.559Z,21.33
2022-12-03T12:24:52.500Z,22.23
2022-12-03T12:27:22.769Z,21.47
2022-12-03T12:29:58.736Z,22.27
2022-12-03T12:32:29.173Z,22.47
2022-12-03T12:35:01.853Z,20.43
2022-12-03T12:37:35.368Z,20.10
2022-12-03T12:40:12.810Z,19.13
2022-12-03T12:42:47.877Z,19.17
2022-12-03T12:45:18.713Z,18.27
2022-12-03T12:47:50.597Z,17.57
2022-12-03T12:50:39.747Z,17.57
2022-12-03T12:53:13.602Z,15.93
2022-12-03T12:55:43.485Z,17.80
2022-12-03T12:58:16.521Z,20.60
2022-12-03T13:00:49.836Z,18.30
2022-12-03T13:03:19.833Z,18.70
2022-12-03T13:05:50.138Z,18.00
2022-12-03T13:08:23.507Z,18.60
2022-12-03T13:10:54.756Z,18.43
2022-12-03T13:13:32.901Z,19.50
2022-12-03T13:16:07.514Z,18.90
2022-12-03T13:18:46.597Z,17.87
2022-12-03T13:21:26.769Z,19.07
2022-12-03T13:23:56.330Z,20.03
2022-12-03T13:26:36.504Z,18.47
2022-12-03T13:29:13.034Z,19.90
2022-12-03T13:31:44.144Z,18.67
2022-12-03T13:34:17.874Z,18.60
2022-12-03T13:36:55.386Z,20.37
2022-12-03T13:39:31.079Z,18.60
2022-12-03T13:42:31.607Z,18.80
2022-12-03T13:44:59.766Z,18.80
2022-12-03T13:47:44.879Z,19.47
2022-12-03T13:50:21.809Z,18.77
2022-12-03T13:52:50.150Z,19.73
2022-12-03T13:55:30.155Z,18.13
2022-12-03T13:57:59.722Z,20.73
2022-12-03T14:00:27.907Z,19.77
2022-12-03T14:02:56.137Z,18.57
2022-12-03T14:05:24.276Z,19.83
2022-12-03T14:07:52.432Z,18.90
2022-12-03T14:10:20.510Z,18.57
2022-12-03T14:12:48.688Z,18.27
2022-12-03T14:15:18.488Z,17.83
2022-12-03T14:17:46.536Z,26.40
2022-12-03T14:20:15.053Z,18.23
2022-12-03T14:22:43.228Z,18.10
2022-12-03T14:25:11.719Z,17.47
2022-12-03T14:27:40.117Z,16.50
2022-12-03T14:30:09.514Z,16.57
2022-12-03T14:32:39.250Z,16.00
2022-12-03T14:35:10.248Z,16.03
2022-12-03T14:37:38.498Z,15.47
2022-12-03T14:40:09.526Z,14.50
2022-12-03T14:42:37.770Z,15.27
2022-12-03T14:45:06.876Z,15.03
2022-12-03T14:47:35.055Z,18.23
2022-12-03T14:50:25.855Z,16.93
2022-12-03T14:52:54.061Z,15.87
2022-12-03T14:55:22.151Z,17.97
2022-12-03T14:57:50.709Z,16.90
2022-12-03T15:00:19.967Z,16.60
2022-12-03T15:02:48.369Z,16.87
2022-12-03T15:05:16.481Z,18.00
2022-12-03T15:07:46.048Z,18.33
2022-12-03T15:10:14.269Z,18.70
2022-12-03T15:12:42.457Z,18.17
2022-12-03T15:15:11.627Z,18.97
2022-12-03T15:17:39.598Z,19.07
2022-12-03T15:20:09.064Z,19.53
2022-12-03T15:22:37.070Z,20.47
2022-12-03T15:25:07.714Z,18.10
2022-12-03T15:27:35.741Z,20.70
2022-12-03T15:30:04.077Z,20.17
2022-12-03T15:32:32.102Z,18.73
2022-12-03T15:35:02.621Z,20.80
2022-12-03T15:37:30.730Z,21.57
2022-12-03T15:39:59.033Z,18.83
2022-12-03T15:42:29.693Z,22.37
2022-12-03T15:44:57.712Z,23.33
2022-12-03T15:47:27.946Z,22.33
2022-12-03T15:49:56.119Z,19.37
2022-12-03T15:52:24.553Z,20.67
2022-12-03T15:54:53.043Z,22.03
2022-12-03T15:57:21.123Z,21.93
2022-12-03T15:59:50.512Z,22.30
2022-12-03T16:02:19.491Z,21.13
2022-12-03T16:04:47.617Z,23.20
2022-12-03T16:07:15.715Z,21.60
2022-12-03T16:09:43.707Z,21.10
2022-12-03T16:12:11.621Z,22.10
2022-12-03T16:14:40.231Z,22.70
2022-12-03T16:17:09.722Z,21.80
2022-12-03T16:19:37.836Z,20.30
2022-12-03T16:22:06.157Z,20.80
2022-12-03T16:24:34.193Z,20.13
2022-12-03T16:27:02.310Z,19.63
2022-12-03T16:29:30.569Z,21.13
2022-12-03T16:31:58.779Z,21.37
2022-12-03T16:34:39.673Z,20.07
2022-12-03T16:37:08.442Z,21.00
2022-12-03T16:39:36.429Z,20.77
2022-12-03T16:42:08.006Z,22.73
2022-12-03T16:45:15.302Z,20.70
2022-12-03T16:47:43.500Z,20.07
2022-12-03T16:50:20.649Z,19.80
2022-12-03T16:52:49.997Z,20.23
2022-12-03T16:55:18.629Z,20.37
2022-12-03T16:57:46.638Z,20.47
2022-12-03T17:00:16.330Z,20.03
2022-12-03T17:02:44.951Z,22.37
2022-12-03T17:05:17.459Z,19.13
2022-12-03T17:07:45.706Z,19.87
2022-12-03T17:10:15.713Z,18.80
2022-12-03T17:13:08.278Z,18.63
2022-12-03T17:15:32.701Z,18.60
2022-12-03T17:18:03.477Z,19.03
2022-12-03T17:20:33.651Z,18.00
2022-12-03T17:23:02.189Z,18.80
2022-12-03T17:25:32.716Z,17.50
2022-12-03T17:28:00.816Z,17.30
2022-12-03T17:30:28.848Z,17.17
2022-12-03T17:32:56.983Z,15.63
2022-12-03T17:35:25.591Z,16.63
2022-12-03T17:37:55.123Z,19.13
2022-12-03T17:40:23.380Z,15.77
2022-12-03T17:42:51.731Z,17.57
2022-12-03T17:45:19.776Z,17.90
2022-12-03T17:47:49.726Z,15.80
2022-12-03T17:50:18.026Z,18.40
2022-12-03T17:52:46.182Z,17.77
2022-12-03T17:55:26.482Z,17.27
2022-12-03T17:57:59.484Z,19.23
2022-12-03T18:00:27.519Z,20.37
2022-12-03T18:02:55.928Z,18.53
2022-12-03T18:05:26.905Z,18.10
2022-12-03T18:07:55.481Z,17.13
2022-12-03T18:10:25.433Z,19.57
2022-12-03T18:12:58.340Z,19.17
2022-12-03T18:15:29.862Z,18.17
2022-12-03T18:17:57.931Z,19.67
2022-12-03T18:20:26.284Z,19.90
2022-12-03T18:22:54.831Z,20.77
2022-12-03T18:25:24.572Z,20.60
2022-12-03T18:27:52.855Z,21.00
2022-12-03T18:30:21.159Z,21.47
2022-12-03T18:32:51.017Z,22.43
2022-12-03T18:35:40.221Z,21.60
2022-12-03T18:38:12.275Z,21.60
2022-12-03T18:40:53.836Z,21.90
2022-12-03T18:43:24.701Z,21.10
2022-12-03T18:45:52.893Z,21.93
2022-12-03T18:48:22.656Z,20.03
2022-12-03T18:50:53.441Z,22.40
2022-12-03T18:53:41.801Z,22.77
2022-12-03T18:56:32.734Z,23.17
2022-12-03T18:59:03.827Z,21.97
2022-12-03T19:01:35.734Z,22.23
2022-12-03T19:04:04.488Z,23.33
2022-12-03T19:06:37.697Z,22.50
2022-12-03T19:09:07.608Z,24.77
2022-12-03T19:11:57.909Z,19.20
2022-12-03T19:14:30.655Z,23.70
2022-12-03T19:17:00.155Z,20.13
2022-12-03T19:19:29.817Z,21.53
2022-12-03T19:22:22.170Z,22.30
2022-12-03T19:24:58.888Z,23.33
2022-12-03T19:27:34.564Z,23.83
2022-12-03T19:30:25.476Z,24.13
2022-12-03T19:32:55.757Z,23.30
2022-12-03T19:35:34.045Z,21.57
2022-12-03T19:38:17.700Z,21.97
2022-12-03T19:41:12.351Z,21.97
2022-12-03T19:43:42.654Z,20.90
2022-12-03T19:46:14.465Z,23.13
2022-12-03T19:49:19.649Z,21.87
2022-12-03T19:51:51.184Z,22.43
2022-12-03T19:54:30.232Z,22.70
2022-12-03T19:57:05.162Z,23.30
2022-12-03T19:59:55.513Z,23.07
2022-12-03T20:02:27.504Z,22.50
2022-12-03T20:04:57.290Z,22.57
2022-12-03T20:07:28.268Z,23.40
2022-12-03T20:10:01.190Z,23.13
2022-12-03T20:12:31.797Z,21.80
2022-12-03T20:15:04.698Z,23.40
2022-12-03T20:17:44.095Z,23.93
2022-12-03T20:20:13.649Z,22.43
2022-12-03T20:22:42.902Z,19.97
2022-12-03T20:25:11.586Z,22.73
2022-12-03T20:28:03.083Z,22.87
2022-12-03T20:30:34.097Z,23.40
2022-12-03T20:33:02.786Z,21.97
2022-12-03T20:35:33.261Z,23.93
2022-12-03T20:38:03.029Z,23.77
2022-12-03T20:40:32.909Z,25.87
2022-12-03T20:43:01.742Z,23.97
2022-12-03T20:45:33.896Z,23.60
2022-12-03T20:48:31.659Z,24.57
2022-12-03T20:51:01.244Z,23.93
2022-12-03T20:53:30.813Z,23.27
2022-12-03T20:55:59.798Z,24.77
2022-12-03T20:58:50.175Z,23.20
2022-12-03T21:01:28.190Z,23.37
2022-12-03T21:04:20.085Z,22.50
2022-12-03T21:06:59.566Z,25.50
2022-12-03T21:09:32.079Z,23.53
2022-12-03T21:12:05.737Z,24.53
2022-12-03T21:14:41.469Z,24.10
2022-12-03T21:17:35.007Z,24.30
2022-12-03T21:22:55.836Z,24.03
2022-12-03T21:25:24.556Z,24.10
2022-12-03T21:27:55.290Z,23.17
2022-12-03T21:30:25.604Z,24.63
2022-12-03T21:33:41.111Z,23.80
2022-12-03T21:36:15.682Z,22.80
2022-12-03T21:39:10.323Z,23.83
2022-12-03T21:42:34.077Z,22.57
2022-12-03T21:44:57.098Z,22.20
2022-12-03T21:47:26.248Z,23.77
2022-12-03T21:50:10.479Z,21.27
2022-12-03T21:53:02.250Z,21.83
2022-12-03T21:55:55.389Z,22.00
2022-12-03T21:58:48.854Z,22.67
2022-12-03T22:01:44.024Z,23.97
2022-12-03T22:04:19.230Z,23.70
2022-12-03T22:06:50.846Z,22.73
2022-12-03T22:09:26.955Z,22.40
2022-12-03T22:11:57.753Z,23.17
2022-12-03T22:14:27.255Z,23.33
2022-12-03T22:16:57.871Z,22.73
2022-12-03T22:19:47.839Z,24.07
2022-12-03T22:22:43.692Z,22.00
2022-12-03T22:25:33.876Z,22.67
2022-12-03T22:28:03.167Z,23.17
2022-12-03T22:30:31.768Z,22.17
2022-12-03T22:33:04.066Z,24.77
2022-12-03T22:36:20.437Z,23.27
2022-12-03T22:39:16.712Z,22.23
2022-12-03T22:42:17.491Z,21.93
2022-12-03T22:44:45.902Z,23.57
2022-12-03T22:47:22.265Z,21.30
2022-12-03T22:49:52.736Z,23.03
2022-12-03T22:52:42.723Z,22.63
2022-12-03T22:55:56.227Z,22.90
2022-12-03T22:58:48.819Z,23.67
2022-12-03T23:01:27.338Z,22.37
2022-12-03T23:04:24.414Z,23.53
2022-12-03T23:06:53.322Z,21.73
2022-12-03T23:09:27.888Z,23.73
2022-12-03T23:12:18.541Z,21.93
2022-12-03T23:15:09.536Z,23.90
2022-12-03T23:17:40.561Z,24.40
2022-12-03T23:20:12.815Z,21.70
2022-12-03T23:22:46.528Z,25.83
2022-12-03T23:25:22.154Z,23.00
2022-12-03T23:27:57.426Z,23.07
2022-12-03T23:30:25.793Z,22.30
2022-12-03T23:33:03.145Z,23.00
2022-12-03T23:35:34.329Z,21.97
2022-12-03T23:38:35.908Z,22.43
2022-12-03T23:41:14.460Z,23.07
2022-12-03T23:44:05.632Z,24.70
2022-12-03T23:46:54.668Z,23.33
2022-12-03T23:49:25.990Z,22.47
2022-12-03T23:51:58.823Z,23.33
2022-12-03T23:55:14.441Z,21.93
2022-12-03T23:58:07.137Z,21.67
